Time;durP1;ratioP1;P1;durP2;ratioP2;P2;SDS_P1;SDS_P2;PMS_P1;PMS_P2;Temp;Humidity;BMP_temperature;BMP_pressure;BME280_temperature;BME280_humidity;BME280_pressure;Samples;Min_cycle;Max_cycle;Signal;HPM_P1;HPM_P2
2021/12/27 00:01:23;;;;;;;275.10;195.93;;;;;;;25.47;39.88;99308.41;5007834;28;20029;-43
2021/12/27 00:03:52;;;;;;;265.75;193.25;;;;;;;25.48;39.93;99312.75;5007222;28;20434;-44
2021/12/27 00:06:21;;;;;;;276.10;195.90;;;;;;;25.52;39.77;99311.78;5006604;28;20025;-44
2021/12/27 00:08:50;;;;;;;266.70;189.30;;;;;;;25.46;39.73;99293.53;5007122;28;20348;-44
2021/12/27 00:11:20;;;;;;;277.10;193.32;;;;;;;25.45;39.77;99294.44;5006465;28;20057;-43
2021/12/27 00:13:48;;;;;;;269.63;188.60;;;;;;;25.42;39.91;99281.34;5006651;28;20514;-43
2021/12/27 00:16:17;;;;;;;258.13;185.65;;;;;;;25.38;39.72;99245.53;5007071;28;20399;-43
2021/12/27 00:18:52;;;;;;;249.07;180.50;;;;;;;25.53;39.80;99247.88;5005577;28;20509;-43
2021/12/27 00:21:20;;;;;;;;;;;;;;;25.74;39.31;99243.06;5007303;28;20033;-44
2021/12/27 00:23:48;;;;;;;246.98;178.77;;;;;;;25.65;39.22;99232.78;5005952;28;20183;-43
2021/12/27 00:26:16;;;;;;;229.85;164.55;;;;;;;25.70;39.06;99228.28;5006131;28;20057;-43
2021/12/27 00:28:45;;;;;;;247.38;176.05;;;;;;;25.37;39.46;99196.53;5006547;28;20383;-42
2021/12/27 00:31:14;;;;;;;249.30;170.43;;;;;;;25.63;39.05;99236.28;5006621;28;20030;-43
2021/12/27 00:33:42;;;;;;;256.75;177.75;;;;;;;25.51;39.51;99243.56;5006773;28;20137;-43
2021/12/27 00:36:10;;;;;;;238.65;174.20;;;;;;;25.44;39.78;99234.94;5006325;28;20483;-43
2021/12/27 00:38:39;;;;;;;249.30;176.13;;;;;;;25.47;39.73;99224.38;5005118;28;20033;-43
2021/12/27 00:41:08;;;;;;;248.40;174.77;;;;;;;25.47;39.34;99214.75;5005676;28;20129;-43
2021/12/27 00:43:36;;;;;;;240.05;171.20;;;;;;;25.45;39.48;99208.66;5005280;28;20076;-44
2021/12/27 00:46:05;;;;;;;237.30;169.68;;;;;;;25.49;39.31;99196.31;5005891;28;20029;-43
2021/12/27 00:48:33;;;;;;;240.70;166.52;;;;;;;25.50;39.35;99189.31;5011829;28;20053;-43
2021/12/27 00:51:03;;;;;;;231.35;161.98;;;;;;;25.44;39.20;99190.31;5006338;28;20030;-44
2021/12/27 00:53:32;;;;;;;236.75;167.88;;;;;;;25.41;39.44;99182.47;5006190;28;20038;-44
2021/12/27 00:56:01;;;;;;;231.65;167.40;;;;;;;25.23;39.27;99147.84;5005831;28;20248;-43
2021/12/27 00:58:28;;;;;;;236.80;161.90;;;;;;;25.46;38.94;99181.50;5005780;28;20438;-44
2021/12/27 01:01:00;;;;;;;230.73;161.02;;;;;;;25.53;39.16;99171.72;5006230;28;20018;-43
2021/12/27 01:03:29;;;;;;;221.07;152.90;;;;;;;25.58;39.06;99156.75;5005946;28;20489;-43
2021/12/27 01:05:56;;;;;;;228.38;156.32;;;;;;;25.52;38.82;99138.50;5005410;28;20026;-43
2021/12/27 01:08:24;;;;;;;225.88;159.57;;;;;;;25.50;39.08;99121.06;5005846;28;20079;-43
2021/12/27 01:11:10;;;;;;;237.30;166.48;;;;;;;25.36;39.35;99140.59;5005947;28;20104;-43
2021/12/27 01:13:42;;;;;;;229.95;166.45;;;;;;;25.43;39.06;99164.97;5005587;28;20037;-43
2021/12/27 01:16:14;;;;;;;238.05;170.18;;;;;;;25.35;39.41;99183.47;5005426;28;20034;-42
2021/12/27 01:18:48;;;;;;;243.88;173.23;;;;;;;25.25;39.47;99160.91;5005489;28;20033;-43
2021/12/27 01:21:19;;;;;;;248.88;176.40;;;;;;;25.23;39.67;99154.88;5006213;28;20096;-44
2021/12/27 01:23:48;;;;;;;247.13;173.48;;;;;;;25.28;39.59;99142.50;5005520;28;20105;-44
2021/12/27 01:26:18;;;;;;;244.55;174.70;;;;;;;25.35;39.47;99130.97;5005956;28;20041;-44
2021/12/27 01:28:46;;;;;;;238.05;165.55;;;;;;;25.34;39.33;99108.25;5005715;28;20022;-44
2021/12/27 01:31:14;;;;;;;226.40;162.75;;;;;;;25.44;38.88;99093.19;5005816;28;20042;-43
2021/12/27 01:33:46;;;;;;;234.48;165.18;;;;;;;25.41;39.28;99077.47;5003725;28;20025;-43
2021/12/27 01:36:17;;;;;;;237.85;169.55;;;;;;;25.20;39.18;99040.31;5005502;28;20491;-43
2021/12/27 01:38:48;;;;;;;232.82;159.48;;;;;;;25.37;39.13;99071.44;5004397;28;20041;-44
2021/12/27 01:41:18;;;;;;;233.27;167.10;;;;;;;25.30;39.27;99069.84;5005454;28;20061;-44
2021/12/27 01:43:48;;;;;;;228.75;161.88;;;;;;;25.33;39.23;99041.75;5005425;28;20542;-44
2021/12/27 01:46:20;;;;;;;228.07;160.40;;;;;;;25.34;39.42;99019.00;5003784;28;20542;-44
2021/12/27 01:48:55;;;;;;;228.07;158.43;;;;;;;25.43;38.81;99002.22;5005063;28;20116;-44
2021/12/27 01:51:25;;;;;;;208.27;145.45;;;;;;;25.43;39.11;99000.44;5005127;28;20034;-44
2021/12/27 01:53:54;;;;;;;219.27;147.65;;;;;;;25.40;38.88;99002.25;5005190;28;20052;-43
2021/12/27 01:56:26;;;;;;;210.40;147.52;;;;;;;25.36;39.04;98990.97;5004916;28;20072;-43
2021/12/27 01:58:55;;;;;;;211.27;146.90;;;;;;;25.36;39.07;98990.97;5004742;28;20049;-43
2021/12/27 02:01:24;;;;;;;208.05;143.82;;;;;;;25.41;38.40;98990.84;5005177;28;20030;-43
2021/12/27 02:03:55;;;;;;;218.77;148.68;;;;;;;25.34;38.92;98992.78;5004901;28;20364;-43
2021/12/27 02:06:27;;;;;;;210.27;145.43;;;;;;;25.38;38.97;98997.06;5004929;28;20033;-43
2021/12/27 02:08:56;;;;;;;214.73;150.45;;;;;;;25.27;39.23;98988.56;5005207;28;20108;-44
2021/12/27 02:11:24;;;;;;;217.50;148.52;;;;;;;25.29;38.73;98982.38;5004878;28;20498;-43
2021/12/27 02:13:52;;;;;;;217.63;151.75;;;;;;;25.31;38.73;98984.97;5004745;28;20065;-43
2021/12/27 02:16:26;;;;;;;221.90;149.93;;;;;;;25.14;38.97;98974.88;5003776;28;20490;-43
2021/12/27 02:18:55;;;;;;;211.88;149.50;;;;;;;25.16;39.03;98973.06;5004504;28;20041;-43
2021/12/27 02:21:24;;;;;;;217.75;154.13;;;;;;;25.16;39.11;98987.06;5004691;28;20041;-43
2021/12/27 02:23:57;;;;;;;210.35;150.52;;;;;;;25.11;39.28;98985.44;5004412;28;20046;-43
2021/12/27 02:26:31;;;;;;;207.82;148.60;;;;;;;25.20;39.14;98987.84;5004723;28;20029;-43
2021/12/27 02:28:58;;;;;;;219.82;154.82;;;;;;;25.14;39.50;98988.00;5004555;28;20464;-43
2021/12/27 02:31:32;;;;;;;208.57;143.88;;;;;;;25.10;39.19;98989.81;5004573;28;20094;-44
2021/12/27 02:34:00;;;;;;;213.43;150.73;;;;;;;25.13;39.31;98983.66;5004419;28;20025;-43
2021/12/27 02:36:29;;;;;;;207.43;148.20;;;;;;;25.14;39.22;98973.09;5003893;28;20038;-43
2021/12/27 02:38:57;;;;;;;208.05;147.20;;;;;;;25.16;39.07;98975.69;5003025;28;20474;-43
2021/12/27 02:41:26;;;;;;;222.20;154.73;;;;;;;25.16;39.07;98967.81;5022408;28;20386;-44
2021/12/27 02:43:55;;;;;;;217.50;152.90;;;;;;;25.20;39.04;98966.00;5024079;28;20036;-43
2021/12/27 02:46:23;;;;;;;226.77;162.90;;;;;;;24.99;39.49;98950.69;5024008;28;20036;-43
2021/12/27 02:48:52;;;;;;;222.98;161.13;;;;;;;25.00;39.29;98959.44;5023741;28;20033;-43
2021/12/27 02:51:21;;;;;;;235.57;166.63;;;;;;;25.07;39.66;98957.53;5023260;28;20567;-44
2021/12/27 02:53:50;;;;;;;228.35;164.60;;;;;;;25.01;39.65;98943.66;5022914;28;20954;-43
2021/12/27 02:56:20;;;;;;;244.98;170.32;;;;;;;25.02;39.61;98945.38;5023133;28;20030;-43
2021/12/27 02:58:49;;;;;;;249.40;174.70;;;;;;;24.92;39.63;98938.63;5022866;28;20862;-44
2021/12/27 03:01:23;;;;;;;247.02;178.05;;;;;;;24.87;40.27;98941.38;5023796;28;20104;-44
2021/12/27 03:03:53;;;;;;;258.42;189.48;;;;;;;24.95;40.33;98941.19;5023800;28;20029;-43
2021/12/27 03:06:22;;;;;;;276.80;197.10;;;;;;;25.09;39.90;98943.47;5023665;28;20236;-44
2021/12/27 03:08:53;;;;;;;267.60;194.95;;;;;;;25.02;40.09;98928.81;5023153;28;20063;-44
2021/12/27 03:11:25;;;;;;;274.88;199.30;;;;;;;25.08;39.99;98939.13;5022092;28;20103;-44
2021/12/27 03:13:55;;;;;;;288.30;209.43;;;;;;;25.09;39.75;98934.75;5023842;28;20478;-44
2021/12/27 03:16:24;;;;;;;287.08;207.02;;;;;;;25.10;40.06;98936.50;5023655;28;20041;-43
2021/12/27 03:18:56;;;;;;;290.58;208.43;;;;;;;25.02;40.31;98936.66;5003536;28;20045;-43
2021/12/27 03:21:25;;;;;;;287.58;207.95;;;;;;;24.99;40.37;98929.72;5003768;28;20414;-43
2021/12/27 03:23:54;;;;;;;298.38;213.95;;;;;;;24.99;40.45;98934.13;5009799;28;20187;-43
2021/12/27 03:26:24;;;;;;;305.35;217.23;;;;;;;25.01;40.32;98935.78;5023245;28;20208;-44
2021/12/27 03:28:52;;;;;;;300.98;216.63;;;;;;;25.10;40.02;98931.25;5013709;28;20056;-43
2021/12/27 03:31:21;;;;;;;297.48;216.27;;;;;;;25.14;40.17;98928.50;5008176;28;20052;-43
2021/12/27 03:33:50;;;;;;;307.55;214.43;;;;;;;25.18;40.27;98939.78;5008109;28;20029;-43
2021/12/27 03:36:23;;;;;;;303.77;219.15;;;;;;;25.19;40.26;98933.63;5007662;28;20278;-43
2021/12/27 03:38:54;;;;;;;277.73;206.23;;;;;;;25.23;39.92;98937.06;5005892;28;20038;-44
2021/12/27 03:41:28;;;;;;;290.08;206.75;;;;;;;25.19;40.23;98941.50;5007658;28;20030;-45
2021/12/27 03:43:56;;;;;;;293.88;207.27;;;;;;;25.21;40.15;98949.34;5020820;28;20033;-43
2021/12/27 03:46:25;;;;;;;292.70;210.38;;;;;;;25.23;39.76;98950.19;5027201;28;20040;-43
2021/12/27 03:48:54;;;;;;;282.77;202.23;;;;;;;25.17;40.08;98949.41;5027266;28;20394;-43
2021/12/27 03:51:22;;;;;;;287.20;207.98;;;;;;;25.21;39.92;98944.09;5025777;28;20394;-44
2021/12/27 03:53:53;;;;;;;292.17;203.68;;;;;;;25.24;40.12;98960.63;5026605;28;20402;-43
2021/12/27 03:56:23;;;;;;;287.55;206.57;;;;;;;25.22;40.18;98953.72;5026683;28;20037;-43
2021/12/27 03:59:07;;;;;;;294.55;207.38;;;;;;;25.24;39.87;98962.38;5014357;28;20093;-44
2021/12/27 04:01:36;;;;;;;288.38;202.60;;;;;;;25.22;39.77;98954.56;5007448;28;20037;-43
2021/12/27 04:04:05;;;;;;;289.63;205.35;;;;;;;25.24;40.03;98970.25;5007320;28;20026;-43
2021/12/27 04:06:34;;;;;;;271.55;192.15;;;;;;;25.30;39.79;98970.09;5007158;28;20108;-43
2021/12/27 04:09:02;;;;;;;276.42;198.82;;;;;;;25.21;40.04;98968.56;5006605;28;20030;-43
2021/12/27 04:11:31;;;;;;;279.60;202.38;;;;;;;25.22;40.07;98977.31;5006912;28;20368;-43
2021/12/27 04:14:02;;;;;;;278.30;197.18;;;;;;;25.16;40.11;98986.16;5006949;28;20036;-43
2021/12/27 04:16:31;;;;;;;268.90;191.70;;;;;;;25.18;40.02;98980.00;5006988;28;20582;-44
2021/12/27 04:18:59;;;;;;;272.55;195.00;;;;;;;25.10;40.30;98988.97;5006816;28;20304;-44
2021/12/27 04:21:28;;;;;;;285.00;199.70;;;;;;;25.10;40.35;98988.97;5006746;28;20091;-44
2021/12/27 04:23:56;;;;;;;282.70;193.75;;;;;;;25.09;40.15;98992.47;5007133;28;20026;-43
2021/12/27 04:26:25;;;;;;;278.77;197.15;;;;;;;24.82;40.17;98964.22;5006888;28;20061;-43
2021/12/27 04:28:56;;;;;;;280.63;201.02;;;;;;;25.12;39.89;99010.78;5007203;28;20038;-44
2021/12/27 04:31:24;;;;;;;286.00;197.32;;;;;;;25.17;40.06;99014.13;5006949;28;20347;-43
2021/12/27 04:33:53;;;;;;;283.20;192.43;;;;;;;25.13;39.79;99023.84;5006569;28;20033;-44
2021/12/27 04:36:22;;;;;;;261.10;188.25;;;;;;;25.19;39.99;99020.22;5026278;28;20061;-44
2021/12/27 04:38:50;;;;;;;271.63;191.65;;;;;;;25.11;39.82;99027.41;5025519;28;20044;-44
2021/12/27 04:41:22;;;;;;;272.70;192.35;;;;;;;25.13;39.75;99030.88;5025462;28;20039;-44
2021/12/27 04:43:50;;;;;;;287.58;202.70;;;;;;;25.07;40.19;99041.50;5026151;28;20541;-44
2021/12/27 04:46:19;;;;;;;297.58;205.50;;;;;;;25.10;39.98;99042.28;5026004;28;20576;-44
2021/12/27 04:48:51;;;;;;;287.45;203.20;;;;;;;25.16;39.89;99051.78;5026066;28;20025;-43
2021/12/27 04:51:20;;;;;;;287.05;198.60;;;;;;;25.09;39.91;99058.06;5025571;28;20037;-43
2021/12/27 04:53:50;;;;;;;278.30;200.02;;;;;;;25.15;39.68;99058.78;5025875;28;20600;-43
2021/12/27 04:56:19;;;;;;;289.17;204.65;;;;;;;25.08;40.38;99069.47;5011753;28;20785;-44
2021/12/27 04:58:48;;;;;;;293.85;201.40;;;;;;;25.09;39.92;99079.06;5005941;28;20388;-44
2021/12/27 05:01:17;;;;;;;291.58;206.52;;;;;;;25.13;39.75;99073.69;5006231;28;20030;-44
2021/12/27 05:03:45;;;;;;;290.77;199.02;;;;;;;25.11;39.90;99072.00;5006023;28;20026;-43
2021/12/27 05:06:14;;;;;;;283.88;201.30;;;;;;;25.12;39.81;99079.00;5005949;28;20521;-44
2021/12/27 05:08:43;;;;;;;296.42;202.65;;;;;;;25.09;40.24;99076.44;5005753;28;20032;-44
2021/12/27 05:11:11;;;;;;;293.00;202.18;;;;;;;25.10;40.04;99075.53;5005582;28;20033;-44
2021/12/27 05:13:40;;;;;;;296.90;205.25;;;;;;;25.06;39.92;99087.00;5005260;28;20057;-44
2021/12/27 05:16:08;;;;;;;290.38;202.68;;;;;;;25.00;40.20;99091.44;5005727;28;20573;-43
2021/12/27 05:18:37;;;;;;;285.60;202.93;;;;;;;25.08;40.13;99096.53;5005920;28;20037;-44
2021/12/27 05:21:06;;;;;;;286.92;202.40;;;;;;;25.09;40.14;99095.66;5004958;28;20029;-44
2021/12/27 05:23:35;;;;;;;294.65;200.68;;;;;;;25.10;40.16;99091.28;5005225;28;20096;-44
2021/12/27 05:26:04;;;;;;;298.73;209.73;;;;;;;24.97;40.26;99098.53;5005890;28;20036;-44
2021/12/27 05:28:32;;;;;;;301.52;206.48;;;;;;;25.02;40.30;99092.28;5005897;28;20030;-44
2021/12/27 05:31:00;;;;;;;281.48;196.93;;;;;;;25.02;40.36;99097.53;5003873;28;20045;-44
2021/12/27 05:33:29;;;;;;;298.67;204.15;;;;;;;25.16;40.05;99105.13;5005721;28;20034;-44
2021/12/27 05:35:57;;;;;;;278.30;194.63;;;;;;;25.09;40.06;99105.28;5005458;28;20112;-44
2021/12/27 05:38:28;;;;;;;283.17;199.02;;;;;;;25.00;40.21;99107.19;5005386;28;20120;-44
2021/12/27 05:40:56;;;;;;;294.25;204.43;;;;;;;24.93;40.52;99113.47;5005425;28;20030;-44
2021/12/27 05:43:27;;;;;;;284.08;202.10;;;;;;;24.96;40.13;99126.53;5005492;28;20626;-44
2021/12/27 05:46:00;;;;;;;291.38;203.02;;;;;;;25.01;40.32;99131.69;5004065;28;20037;-44
2021/12/27 05:48:29;;;;;;;282.35;196.68;;;;;;;25.00;40.07;99128.19;5005295;28;20041;-44
2021/12/27 05:50:57;;;;;;;304.08;204.65;;;;;;;25.05;39.76;99127.22;5005784;28;20148;-44
2021/12/27 05:53:26;;;;;;;282.50;196.10;;;;;;;25.04;40.32;99144.75;5005077;28;20041;-44
2021/12/27 05:55:53;;;;;;;286.23;201.05;;;;;;;25.08;39.92;99148.16;5005064;28;20040;-44
2021/12/27 05:58:22;;;;;;;281.15;193.63;;;;;;;25.00;39.88;99146.53;5004473;28;20120;-45
2021/12/27 06:00:53;;;;;;;273.52;190.70;;;;;;;25.00;40.16;99149.16;5004671;28;20288;-43
2021/12/27 06:03:22;;;;;;;290.92;193.52;;;;;;;25.08;39.78;99150.78;5005246;28;20041;-44
2021/12/27 06:05:51;;;;;;;276.35;193.95;;;;;;;25.02;40.20;99152.63;5004709;28;20489;-44
2021/12/27 06:08:19;;;;;;;282.20;192.98;;;;;;;24.99;40.11;99139.56;5003686;28;20115;-44
2021/12/27 06:10:48;;;;;;;276.33;190.75;;;;;;;24.98;40.00;99134.38;5004656;28;20036;-44
2021/12/27 06:13:18;;;;;;;298.27;202.48;;;;;;;24.94;40.04;99146.69;5005010;28;20104;-44
2021/12/27 06:15:46;;;;;;;295.02;201.48;;;;;;;25.05;40.13;99153.47;5004977;28;20026;-44
2021/12/27 06:18:20;;;;;;;292.17;199.18;;;;;;;24.96;40.19;99149.25;5004241;28;20029;-43
2021/12/27 06:20:49;;;;;;;290.02;202.95;;;;;;;24.89;40.48;99156.41;5004710;28;20079;-44
2021/12/27 06:23:19;;;;;;;294.52;205.38;;;;;;;24.91;40.36;99159.84;5003500;28;20129;-43
2021/12/27 06:25:47;;;;;;;298.15;205.43;;;;;;;24.88;40.35;99159.91;5004664;28;20030;-43
2021/12/27 06:28:17;;;;;;;291.92;205.73;;;;;;;24.87;40.27;99161.69;5003295;28;20040;-43
2021/12/27 06:30:47;;;;;;;291.80;204.50;;;;;;;24.92;40.54;99163.31;5004403;28;20036;-43
2021/12/27 06:33:16;;;;;;;295.73;200.95;;;;;;;24.98;40.07;99164.09;5004704;28;20474;-44
2021/12/27 06:35:47;;;;;;;290.98;202.18;;;;;;;24.94;39.91;99167.66;5004360;28;20041;-43
2021/12/27 06:38:24;;;;;;;298.00;205.80;;;;;;;24.99;40.17;99171.03;5004380;28;20040;-43
2021/12/27 06:40:55;;;;;;;295.40;201.32;;;;;;;24.98;39.99;99171.97;5004275;28;20033;-44
2021/12/27 06:43:24;;;;;;;290.08;197.75;;;;;;;25.00;40.13;99174.56;5003866;28;20034;-43
2021/12/27 06:45:58;;;;;;;283.00;193.35;;;;;;;25.06;39.67;99177.06;5003894;28;20038;-43
2021/12/27 06:48:28;;;;;;;274.58;191.07;;;;;;;24.99;39.97;99170.19;5004521;28;20513;-43
2021/12/27 06:50:57;;;;;;;279.75;193.20;;;;;;;24.93;39.99;99170.31;5002936;28;20034;-44
2021/12/27 06:53:28;;;;;;;281.63;192.32;;;;;;;24.93;39.70;99176.44;5004678;28;20049;-44
2021/12/27 06:55:57;;;;;;;290.75;197.15;;;;;;;24.80;40.10;99177.56;5004266;28;20088;-44
2021/12/27 06:58:26;;;;;;;289.50;201.18;;;;;;;24.84;40.08;99181.84;5003437;28;20510;-44
2021/12/27 07:00:56;;;;;;;289.48;195.73;;;;;;;24.82;40.46;99181.03;5003819;28;20398;-44
2021/12/27 07:03:25;;;;;;;290.77;192.98;;;;;;;24.87;40.25;99176.53;5002100;28;20395;-44
2021/12/27 07:05:54;;;;;;;271.85;189.35;;;;;;;24.88;39.79;99183.50;5003739;28;20281;-44
2021/12/27 07:08:23;;;;;;;281.45;188.65;;;;;;;24.89;39.69;99180.00;5003928;28;20022;-44
2021/12/27 07:10:54;;;;;;;269.75;184.35;;;;;;;24.84;40.10;99185.34;5003947;28;20448;-46
2021/12/27 07:13:24;;;;;;;258.13;181.60;;;;;;;24.91;39.66;99175.59;5004131;28;20061;-44
2021/12/27 07:15:55;;;;;;;276.25;185.25;;;;;;;24.94;39.68;99179.91;5003890;28;20116;-44
2021/12/27 07:18:23;;;;;;;268.27;181.63;;;;;;;24.97;39.82;99179.84;5003761;28;20114;-44
2021/12/27 07:20:53;;;;;;;270.10;182.57;;;;;;;24.98;40.01;99186.81;5004136;28;20123;-45
2021/12/27 07:23:22;;;;;;;274.65;183.90;;;;;;;24.96;39.86;99186.88;5002432;28;20111;-44
2021/12/27 07:25:50;;;;;;;260.35;177.77;;;;;;;24.96;39.87;99194.75;5003702;28;20717;-44
2021/12/27 07:28:20;;;;;;;260.95;178.77;;;;;;;24.92;39.76;99192.19;5003982;28;20045;-43
2021/12/27 07:30:48;;;;;;;264.92;180.00;;;;;;;24.98;40.04;99198.19;5003847;28;20038;-44
2021/12/27 07:33:17;;;;;;;261.52;180.52;;;;;;;25.02;39.85;99196.38;5003518;28;20443;-44
2021/12/27 07:35:47;;;;;;;274.10;183.15;;;;;;;24.98;40.11;99206.06;5003387;28;20117;-44
2021/12/27 07:38:15;;;;;;;262.58;172.25;;;;;;;25.00;39.84;99200.78;5003308;28;20034;-44
2021/12/27 07:40:43;;;;;;;270.02;181.23;;;;;;;24.88;39.84;99199.25;5003869;28;20109;-43
2021/12/27 07:43:12;;;;;;;262.38;175.65;;;;;;;24.88;39.99;99200.13;5003844;28;20042;-43
2021/12/27 07:45:40;;;;;;;266.95;172.38;;;;;;;24.97;39.58;99204.34;5003627;28;20056;-44
2021/12/27 07:48:10;;;;;;;250.65;174.25;;;;;;;24.95;39.69;99200.88;5003697;28;20117;-44
2021/12/27 07:50:39;;;;;;;246.27;167.60;;;;;;;25.00;39.84;99193.75;5003532;28;20391;-43
2021/12/27 07:53:08;;;;;;;253.38;176.13;;;;;;;24.99;39.91;99207.78;5002791;28;20096;-47
2021/12/27 07:55:36;;;;;;;256.88;171.57;;;;;;;25.00;39.44;99216.53;4985523;28;20083;-45
2021/12/27 07:58:05;;;;;;;248.07;162.60;;;;;;;24.98;39.75;99210.44;5003362;28;20054;-44
2021/12/27 08:00:34;;;;;;;253.13;165.57;;;;;;;24.92;39.57;99216.66;5003529;28;20033;-44
2021/12/27 08:03:03;;;;;;;246.30;161.65;;;;;;;24.99;39.50;99207.78;5002318;28;20450;-46
2021/12/27 08:05:33;;;;;;;226.52;155.95;;;;;;;24.98;39.39;99216.56;5019264;28;20038;-44
2021/12/27 08:08:02;;;;;;;233.13;152.00;;;;;;;24.99;39.59;99213.03;5023107;28;20095;-45
2021/12/27 08:10:30;;;;;;;236.45;156.93;;;;;;;25.00;39.44;99220.00;5022948;28;20087;-44
2021/12/27 08:13:01;;;;;;;248.40;161.23;;;;;;;24.95;39.88;99216.63;5003293;28;20248;-45
2021/12/27 08:15:30;;;;;;;228.90;155.27;;;;;;;24.95;39.69;99237.59;5003598;28;20041;-44
2021/12/27 08:17:59;;;;;;;244.77;161.80;;;;;;;24.98;39.42;99245.41;5006916;28;20278;-45
2021/12/27 08:20:28;;;;;;;239.05;156.02;;;;;;;24.98;39.32;99244.53;5006859;28;20551;-44
2021/12/27 08:22:57;;;;;;;236.60;154.48;;;;;;;24.97;39.59;99245.44;5007026;28;20487;-45
2021/12/27 08:25:25;;;;;;;237.75;158.18;;;;;;;24.97;39.44;99251.56;5006843;28;20022;-44
2021/12/27 08:27:54;;;;;;;235.80;159.25;;;;;;;25.02;39.41;99248.84;5006986;28;20079;-44
2021/12/27 08:30:24;;;;;;;235.48;159.20;;;;;;;24.94;39.66;99251.59;5005404;28;20037;-44
2021/12/27 08:32:55;;;;;;;245.13;159.68;;;;;;;24.96;39.49;99255.06;5006869;28;20042;-44
2021/12/27 08:35:24;;;;;;;237.70;161.82;;;;;;;24.98;39.81;99255.03;5005401;28;20056;-45
2021/12/27 08:37:53;;;;;;;234.50;154.43;;;;;;;24.97;39.47;99250.69;5006289;28;20127;-45
2021/12/27 08:40:21;;;;;;;254.13;168.55;;;;;;;24.95;39.81;99257.72;5006410;28;20026;-45
2021/12/27 08:42:50;;;;;;;254.13;168.48;;;;;;;24.98;39.64;99274.28;5006144;28;20585;-46
2021/12/27 08:45:19;;;;;;;250.27;167.65;;;;;;;25.04;39.51;99273.28;5010030;28;20542;-45
2021/12/27 08:47:48;;;;;;;250.82;170.38;;;;;;;25.00;39.62;99280.34;5007939;28;20060;-45
2021/12/27 08:50:17;;;;;;;250.77;171.68;;;;;;;25.03;39.94;99280.28;5026548;28;20913;-43
2021/12/27 08:52:47;;;;;;;257.58;172.50;;;;;;;25.02;39.69;99288.19;5018851;28;20029;-46
2021/12/27 08:55:16;;;;;;;249.30;167.00;;;;;;;25.06;39.66;99283.75;5006138;28;20025;-45
2021/12/27 08:57:45;;;;;;;250.48;174.73;;;;;;;25.03;39.56;99289.94;5009983;28;20037;-45
2021/12/27 09:00:15;;;;;;;256.55;172.75;;;;;;;24.99;39.90;99306.59;5025875;28;20474;-45
2021/12/27 09:02:45;;;;;;;251.98;168.85;;;;;;;24.92;40.21;99307.59;5025807;28;20029;-44
2021/12/27 09:05:14;;;;;;;271.33;179.82;;;;;;;24.99;40.13;99314.47;5025314;28;20033;-44
2021/12/27 09:07:42;;;;;;;281.08;180.27;;;;;;;25.07;39.80;99315.19;5024151;28;20355;-45
2021/12/27 09:10:11;;;;;;;258.33;179.15;;;;;;;24.99;40.11;99317.09;5023998;28;20406;-42
2021/12/27 09:12:40;;;;;;;275.30;185.23;;;;;;;25.02;40.24;99320.53;5025575;28;20031;-45
2021/12/27 09:15:09;;;;;;;270.55;182.50;;;;;;;25.01;40.27;99316.16;5025654;28;20036;-48
2021/12/27 09:17:38;;;;;;;273.10;188.02;;;;;;;25.08;40.03;99330.03;5023982;28;20029;-45
2021/12/27 09:20:07;;;;;;;277.45;188.52;;;;;;;25.07;39.98;99330.94;5025449;28;20100;-45
2021/12/27 09:22:36;;;;;;;282.83;189.82;;;;;;;25.04;40.14;99331.00;5025585;28;20336;-45
2021/12/27 09:25:05;;;;;;;254.05;174.82;;;;;;;25.03;39.83;99335.38;5025022;28;20029;-44
2021/12/27 09:27:34;;;;;;;258.45;172.85;;;;;;;24.92;39.88;99332.09;5017640;28;20037;-45
2021/12/27 09:30:06;;;;;;;253.60;170.90;;;;;;;24.98;39.92;99334.63;5018574;28;20030;-44
2021/12/27 09:32:35;;;;;;;260.85;170.95;;;;;;;25.01;39.62;99336.31;5006001;28;20026;-44
2021/12/27 09:35:03;;;;;;;268.05;172.63;;;;;;;25.02;40.09;99336.28;5011782;28;20560;-44
2021/12/27 09:37:32;;;;;;;254.27;174.88;;;;;;;25.08;39.56;99326.56;5010877;28;20025;-44
2021/12/27 09:40:01;;;;;;;249.90;168.98;;;;;;;25.09;39.56;99328.31;5005401;28;20069;-46
2021/12/27 09:42:30;;;;;;;268.42;173.77;;;;;;;25.07;39.65;99333.56;5005973;28;20025;-45
2021/12/27 09:44:58;;;;;;;255.30;172.63;;;;;;;25.03;39.78;99345.03;5024850;28;20517;-46
2021/12/27 09:47:27;;;;;;;255.43;168.50;;;;;;;25.00;39.80;99330.19;5007188;28;20116;-45
2021/12/27 09:49:55;;;;;;;258.70;175.55;;;;;;;25.06;39.72;99338.84;5022291;28;20060;-44
2021/12/27 09:52:24;;;;;;;246.48;170.07;;;;;;;25.04;39.97;99336.25;5019259;28;20033;-44
2021/12/27 09:54:53;;;;;;;271.90;179.73;;;;;;;25.03;39.78;99339.78;5014168;28;20032;-44
2021/12/27 09:57:22;;;;;;;273.80;180.90;;;;;;;25.08;39.72;99337.06;5024817;28;20067;-44
2021/12/27 09:59:51;;;;;;;257.15;175.05;;;;;;;25.11;39.70;99331.78;5022513;28;20064;-45
2021/12/27 10:02:24;;;;;;;281.52;186.05;;;;;;;25.09;39.75;99342.28;5008761;28;20030;-45
2021/12/27 10:04:53;;;;;;;278.35;186.02;;;;;;;25.05;39.76;99332.75;5024787;28;20032;-44
2021/12/27 10:07:23;;;;;;;266.70;181.60;;;;;;;25.02;40.26;99341.50;5019543;28;20417;-44
2021/12/27 10:09:55;;;;;;;269.48;179.75;;;;;;;25.04;40.10;99341.50;5024240;28;20045;-45
2021/12/27 10:12:24;;;;;;;273.25;177.32;;;;;;;25.02;40.38;99353.78;5024998;28;20022;-44
2021/12/27 10:15:04;;;;;;;259.27;176.88;;;;;;;25.06;39.87;99354.59;5012242;28;20085;-44
2021/12/27 10:17:35;;;;;;;280.40;186.25;;;;;;;25.06;40.23;99358.09;5009404;28;20032;-44
2021/12/27 10:20:13;;;;;;;275.27;179.38;;;;;;;25.07;40.05;99370.28;5023487;28;20730;-44
2021/12/27 10:22:43;;;;;;;277.65;179.15;;;;;;;25.07;40.28;99370.28;5012782;28;20030;-44
2021/12/27 10:25:24;;;;;;;266.63;174.70;;;;;;;25.09;40.10;99375.53;5018288;28;20038;-44
2021/12/27 10:27:54;;;;;;;266.88;179.82;;;;;;;25.08;40.13;99366.78;5004358;28;20038;-44
2021/12/27 10:30:26;;;;;;;263.75;183.02;;;;;;;25.13;39.85;99371.97;5009579;28;20040;-44
2021/12/27 10:33:14;;;;;;;261.70;173.40;;;;;;;25.15;40.10;99378.06;5023773;28;20087;-45
2021/12/27 10:35:46;;;;;;;268.98;180.50;;;;;;;25.08;39.94;99372.03;5015914;28;20034;-44
2021/12/27 10:38:37;;;;;;;270.92;175.25;;;;;;;25.03;40.10;99366.00;5013799;28;20293;-44
2021/12/27 10:41:10;;;;;;;254.65;169.13;;;;;;;25.04;40.15;99375.63;5019424;28;20042;-44
2021/12/27 10:43:58;;;;;;;265.48;176.88;;;;;;;25.08;40.02;99376.41;5012149;28;20033;-44
2021/12/27 10:46:26;;;;;;;258.80;180.88;;;;;;;25.08;39.97;99373.78;5016668;28;20033;-44
2021/12/27 10:48:59;;;;;;;281.90;189.00;;;;;;;25.01;40.53;99379.13;5016306;28;21026;-44
2021/12/27 10:51:29;;;;;;;263.73;177.38;;;;;;;25.11;40.18;99379.00;5012460;28;20040;-44
2021/12/27 10:54:00;;;;;;;271.67;182.02;;;;;;;25.10;39.91;99387.75;5007670;28;20077;-45
2021/12/27 10:56:52;;;;;;;276.67;180.07;;;;;;;25.15;40.28;99383.31;5003957;28;20345;-44
2021/12/27 10:59:22;;;;;;;284.77;186.23;;;;;;;25.04;40.26;99373.00;5012527;28;20415;-44
2021/12/27 11:01:50;;;;;;;270.55;179.15;;;;;;;25.06;40.52;99373.84;5014105;28;20466;-44
2021/12/27 11:04:20;;;;;;;268.55;176.70;;;;;;;25.00;40.22;99356.41;5004162;28;20901;-46
2021/12/27 11:06:49;;;;;;;281.40;186.57;;;;;;;25.11;40.51;99358.84;5004096;28;20061;-47
2021/12/27 11:09:17;;;;;;;265.77;174.57;;;;;;;25.05;40.18;99374.72;5004181;28;20033;-46
2021/12/27 11:11:46;;;;;;;269.85;181.57;;;;;;;25.06;40.19;99362.47;5004026;28;20064;-45
2021/12/27 11:14:15;;;;;;;260.35;170.32;;;;;;;25.01;40.30;99367.78;5015097;28;20025;-45